Time;durP1;ratioP1;P1;durP2;ratioP2;P2;SDS_P1;SDS_P2;PMS_P1;PMS_P2;Temp;Humidity;BMP_temperature;BMP_pressure;BME280_temperature;BME280_humidity;BME280_pressure;Samples;Min_cycle;Max_cycle;Signal;HPM_P1;HPM_P2
2023/01/04 00:02:00;;;;;;;1999.90;999.90;;;4.30;99.90;;;;;;5049251;28;20462;-67
2023/01/04 00:04:27;;;;;;;1999.90;999.90;;;4.30;99.90;;;;;;5048404;28;20458;-68
2023/01/04 00:06:54;;;;;;;1999.90;999.90;;;4.30;99.90;;;;;;5049031;28;20641;-68
2023/01/04 00:09:21;;;;;;;1999.90;999.90;;;4.30;99.90;;;;;;5047559;28;20483;-68
2023/01/04 00:11:47;;;;;;;1999.90;999.90;;;4.30;99.90;;;;;;5048777;28;20448;-68
2023/01/04 00:14:17;;;;;;;1999.90;999.90;;;4.30;99.90;;;;;;5048259;28;20459;-68
2023/01/04 00:16:44;;;;;;;1999.90;999.90;;;4.20;99.90;;;;;;5048582;28;20482;-67
2023/01/04 00:19:12;;;;;;;1999.90;999.90;;;4.20;99.90;;;;;;5044618;28;20444;-68
2023/01/04 00:21:39;;;;;;;1999.90;999.90;;;4.20;99.90;;;;;;5036399;28;20448;-68
2023/01/04 00:24:07;;;;;;;1999.90;999.90;;;4.20;99.90;;;;;;5048795;28;20452;-67
2023/01/04 00:26:35;;;;;;;1999.90;999.90;;;4.20;99.90;;;;;;5048473;28;20498;-67
2023/01/04 00:29:04;;;;;;;1999.90;999.90;;;4.10;99.90;;;;;;5048272;28;20476;-68
2023/01/04 00:31:33;;;;;;;1999.90;999.90;;;4.10;99.90;;;;;;5046904;28;20444;-67
2023/01/04 00:34:01;;;;;;;1999.90;999.90;;;4.10;99.90;;;;;;5048081;28;20954;-67
2023/01/04 00:36:28;;;;;;;1999.90;999.90;;;4.10;99.90;;;;;;5048349;28;20466;-67
2023/01/04 00:39:06;;;;;;;1999.90;999.90;;;4.10;99.90;;;;;;5047272;28;20432;-67
2023/01/04 00:41:34;;;;;;;1999.90;999.90;;;4.00;99.90;;;;;;5048039;28;20459;-68
2023/01/04 00:44:03;;;;;;;1999.90;999.90;;;4.00;99.90;;;;;;5047055;28;20451;-68
2023/01/04 00:46:30;;;;;;;1999.90;999.90;;;4.00;99.90;;;;;;5022520;28;20564;-69
2023/01/04 00:48:58;;;;;;;1999.90;999.90;;;4.10;99.90;;;;;;5027157;28;20477;-68
2023/01/04 00:51:25;;;;;;;1999.90;999.90;;;4.10;99.90;;;;;;5041745;28;20479;-68
2023/01/04 00:53:52;;;;;;;1999.90;999.90;;;4.10;99.90;;;;;;5046044;28;20446;-68
2023/01/04 00:56:19;;;;;;;1999.90;999.90;;;4.00;99.90;;;;;;5047934;28;20436;-68
2023/01/04 00:58:46;;;;;;;1999.90;999.90;;;4.00;99.90;;;;;;5047063;28;20435;-68
2023/01/04 01:01:13;;;;;;;1999.90;999.90;;;4.00;99.90;;;;;;5048114;28;20432;-69
2023/01/04 01:03:39;;;;;;;1999.90;999.90;;;4.00;99.90;;;;;;5047615;28;20447;-69
2023/01/04 01:06:08;;;;;;;1999.90;999.90;;;4.00;99.90;;;;;;5047871;28;20428;-69
2023/01/04 01:08:36;;;;;;;1999.90;999.90;;;4.00;99.90;;;;;;5046613;28;21241;-68
2023/01/04 01:11:04;;;;;;;1999.90;999.90;;;4.00;99.90;;;;;;5047892;28;20494;-68
2023/01/04 01:13:31;;;;;;;1999.90;999.90;;;4.00;99.90;;;;;;5046616;28;20446;-68
2023/01/04 01:16:03;;;;;;;1999.90;999.90;;;4.00;99.90;;;;;;5047974;28;20454;-68
2023/01/04 01:18:29;;;;;;;1999.90;999.90;;;4.00;99.90;;;;;;5039277;28;20560;-69
2023/01/04 01:20:56;;;;;;;1999.90;999.90;;;4.00;99.90;;;;;;5035680;28;20444;-69
2023/01/04 01:23:24;;;;;;;1999.90;999.90;;;4.00;99.90;;;;;;5042942;28;20455;-69
2023/01/04 01:25:52;;;;;;;1999.90;999.90;;;4.00;99.90;;;;;;5048637;28;20466;-68
2023/01/04 01:28:18;;;;;;;1999.90;999.90;;;4.00;99.90;;;;;;5048237;28;20459;-68
2023/01/04 01:30:45;;;;;;;1999.90;999.90;;;3.90;99.90;;;;;;5047621;28;20440;-69
2023/01/04 01:33:12;;;;;;;1999.90;999.90;;;4.00;99.90;;;;;;5048550;28;20447;-68
2023/01/04 01:35:38;;;;;;;1999.90;999.90;;;4.00;99.90;;;;;;5048595;28;20448;-68
2023/01/04 01:38:05;;;;;;;1999.90;999.90;;;4.00;99.90;;;;;;5048895;28;20490;-68
2023/01/04 01:40:33;;;;;;;1999.90;999.90;;;4.00;99.90;;;;;;5048109;28;20471;-69
2023/01/04 01:43:00;;;;;;;1999.90;999.90;;;4.00;99.90;;;;;;5049046;28;20456;-68
2023/01/04 01:45:31;;;;;;;1999.90;999.90;;;4.00;99.90;;;;;;5049293;28;20450;-69
2023/01/04 01:48:06;;;;;;;1999.90;999.90;;;4.00;99.90;;;;;;5049205;28;20479;-68
2023/01/04 01:50:37;;;;;;;1999.90;999.90;;;3.90;99.90;;;;;;5048402;28;20502;-68
2023/01/04 01:53:07;;;;;;;1999.90;999.90;;;3.80;99.90;;;;;;5048349;28;20448;-68
2023/01/04 01:55:36;;;;;;;1999.90;999.90;;;3.70;99.90;;;;;;5047916;28;20436;-68
2023/01/04 01:58:05;;;;;;;1999.90;999.90;;;3.60;99.90;;;;;;5048359;28;20483;-68
2023/01/04 02:00:32;;;;;;;1999.90;999.90;;;3.60;99.90;;;;;;5047938;28;20444;-69
2023/01/04 02:03:11;;;;;;;1999.90;999.90;;;3.60;99.90;;;;;;5047734;28;21009;-67
2023/01/04 02:05:38;;;;;;;1999.90;999.90;;;3.50;99.90;;;;;;5048261;28;20445;-68
2023/01/04 02:08:06;;;;;;;1999.90;999.90;;;3.60;99.90;;;;;;5048579;28;20835;-68
2023/01/04 02:10:33;;;;;;;1999.90;999.90;;;3.60;99.90;;;;;;5047672;28;20491;-68
2023/01/04 02:13:06;;;;;;;1999.90;999.90;;;3.60;99.90;;;;;;5048405;28;20447;-68
2023/01/04 02:15:53;;;;;;;1999.90;999.90;;;3.60;99.90;;;;;;5048292;28;20447;-69
2023/01/04 02:18:26;;;;;;;1999.90;999.90;;;3.60;99.90;;;;;;5047695;28;20464;-68
2023/01/04 02:21:02;;;;;;;1999.90;999.90;;;3.60;99.90;;;;;;5048293;28;20436;-69
2023/01/04 02:23:49;;;;;;;1999.90;999.90;;;3.70;99.90;;;;;;5047783;28;20458;-69
2023/01/04 02:27:07;;;;;;;1999.90;999.90;;;3.60;99.90;;;;;;5047879;28;20451;-68
2023/01/04 02:30:08;;;;;;;1999.90;999.90;;;3.70;99.90;;;;;;5047216;28;20536;-67
2023/01/04 02:32:54;;;;;;;1999.90;999.90;;;3.60;99.90;;;;;;5047437;28;20878;-68
2023/01/04 02:35:28;;;;;;;1999.90;999.90;;;3.60;99.90;;;;;;5048373;28;20955;-68
2023/01/04 02:38:02;;;;;;;1999.90;999.90;;;3.60;99.90;;;;;;5047872;28;20981;-67
2023/01/04 02:40:40;;;;;;;1999.90;999.90;;;3.50;99.90;;;;;;5047502;28;20432;-67
2023/01/04 02:46:06;;;;;;;1999.90;999.90;;;3.40;99.90;;;;;;5048388;28;20775;-68
2023/01/04 02:51:28;;;;;;;1999.90;999.90;;;3.10;99.90;;;;;;5047591;28;20490;-68
2023/01/04 02:53:56;;;;;;;1999.90;999.90;;;3.10;99.90;;;;;;5047057;28;20451;-67
2023/01/04 02:56:35;;;;;;;1999.90;999.90;;;3.10;99.90;;;;;;5022052;28;20457;-68
2023/01/04 02:59:17;;;;;;;1999.90;999.90;;;3.10;99.90;;;;;;5026695;28;20457;-68
2023/01/04 03:07:39;;;;;;;1999.90;999.90;;;2.90;99.90;;;;;;5031751;28;20839;-69
2023/01/04 03:10:09;;;;;;;1999.90;999.90;;;2.80;99.90;;;;;;5030466;28;20491;-68
2023/01/04 03:12:42;;;;;;;1999.90;999.90;;;2.80;99.90;;;;;;5031814;28;20455;-68
2023/01/04 03:15:15;;;;;;;1999.90;999.90;;;2.70;99.90;;;;;;5030839;28;20452;-67
2023/01/04 03:17:47;;;;;;;1999.90;999.90;;;2.70;99.90;;;;;;5034312;28;20463;-67
2023/01/04 03:20:18;;;;;;;1999.90;999.90;;;2.70;99.90;;;;;;5050557;28;20436;-68
2023/01/04 03:36:58;;;;;;;1999.90;999.90;;;2.80;99.90;;;;;;5013562;28;21236;-68
2023/01/04 03:51:03;;;;;;;1999.90;999.90;;;2.80;99.90;;;;;;5030025;28;20891;-70
2023/01/04 03:53:33;;;;;;;1999.90;999.90;;;2.90;99.90;;;;;;5029381;28;21158;-68
2023/01/04 03:56:02;;;;;;;1999.90;999.90;;;2.90;99.90;;;;;;5029931;28;20475;-69
2023/01/04 03:58:29;;;;;;;1999.90;999.90;;;3.10;99.90;;;;;;5029050;28;20470;-68
2023/01/04 04:01:02;;;;;;;1999.90;999.90;;;3.10;99.90;;;;;;5030046;28;20440;-69
2023/01/04 04:08:59;;;;;;;1999.90;999.90;;;3.20;99.90;;;;;;5029056;28;20420;-69
2023/01/04 04:11:31;;;;;;;1999.90;999.90;;;3.30;99.90;;;;;;5029430;28;20440;-68
2023/01/04 04:13:59;;;;;;;1999.90;999.90;;;3.30;99.90;;;;;;5029807;28;20444;-69
2023/01/04 04:16:27;;;;;;;1999.90;999.90;;;3.40;99.90;;;;;;5029403;28;20437;-68
2023/01/04 04:18:54;;;;;;;1999.90;999.90;;;3.50;99.90;;;;;;5027765;28;20449;-69
2023/01/04 04:21:20;;;;;;;1999.90;999.90;;;3.60;99.90;;;;;;5029477;28;20822;-68
2023/01/04 04:23:47;;;;;;;1999.90;999.90;;;3.80;99.90;;;;;;5029412;28;20449;-68
2023/01/04 04:26:16;;;;;;;1999.90;999.90;;;3.90;99.90;;;;;;5029484;28;20448;-68
2023/01/04 04:28:43;;;;;;;1999.90;999.90;;;4.00;99.90;;;;;;5028314;28;20704;-68
2023/01/04 04:31:10;;;;;;;1999.90;999.90;;;4.10;99.90;;;;;;5029416;28;20990;-66
2023/01/04 04:33:37;;;;;;;1999.90;999.90;;;4.20;99.90;;;;;;5028864;28;21026;-67
2023/01/04 04:36:04;;;;;;;1999.90;999.90;;;4.30;99.90;;;;;;5029615;28;20447;-68
2023/01/04 04:38:31;;;;;;;1999.90;999.90;;;4.40;99.90;;;;;;5028553;28;20457;-68
2023/01/04 04:43:43;;;;;;;1999.90;999.90;;;4.50;99.90;;;;;;5029593;28;20432;-67
2023/01/04 04:46:10;;;;;;;1999.90;999.90;;;4.50;99.90;;;;;;5029999;28;20452;-67
2023/01/04 04:48:37;;;;;;;1999.90;999.90;;;4.50;99.90;;;;;;5029344;28;20463;-69
2023/01/04 04:51:04;;;;;;;1999.90;999.90;;;4.60;99.90;;;;;;5029881;28;20483;-68
2023/01/04 04:53:30;;;;;;;1999.90;999.90;;;4.70;99.90;;;;;;5029642;28;20440;-69
2023/01/04 04:55:57;;;;;;;1999.90;999.90;;;4.70;99.90;;;;;;5029702;28;20445;-69
2023/01/04 04:58:24;;;;;;;1999.90;999.90;;;4.70;99.90;;;;;;5036310;28;20464;-68
2023/01/04 05:00:52;;;;;;;1999.90;999.90;;;4.80;99.90;;;;;;5049599;28;20447;-69
2023/01/04 05:03:19;;;;;;;1999.90;999.90;;;4.80;99.90;;;;;;5049328;28;20451;-69
2023/01/04 05:05:46;;;;;;;1999.90;999.90;;;4.80;99.90;;;;;;5049418;28;20431;-69
2023/01/04 05:08:13;;;;;;;1999.90;999.90;;;4.80;99.90;;;;;;5048895;28;20460;-67
2023/01/04 05:10:39;;;;;;;1999.90;999.90;;;4.80;99.90;;;;;;5049174;28;20848;-69
2023/01/04 05:13:09;;;;;;;1999.90;999.90;;;4.80;99.90;;;;;;5048831;28;20786;-68
2023/01/04 05:15:38;;;;;;;1999.90;999.90;;;4.80;99.90;;;;;;5049671;28;20538;-68
2023/01/04 05:18:08;;;;;;;1999.90;999.90;;;4.90;99.90;;;;;;5049046;28;20451;-68
2023/01/04 05:20:35;;;;;;;1999.90;999.90;;;4.90;99.90;;;;;;5048553;28;20432;-68
2023/01/04 05:23:02;;;;;;;1999.90;999.90;;;5.00;99.90;;;;;;5048829;28;20485;-68
2023/01/04 05:25:29;;;;;;;1999.90;999.90;;;5.00;99.90;;;;;;5049128;28;20432;-68
2023/01/04 05:27:56;;;;;;;1999.90;999.90;;;5.00;99.90;;;;;;5048759;28;20459;-69
2023/01/04 05:33:09;;;;;;;1999.90;999.90;;;5.00;99.90;;;;;;5048941;28;20832;-68
2023/01/04 05:35:35;;;;;;;1999.90;999.90;;;5.00;99.90;;;;;;5049176;28;20952;-69
2023/01/04 05:38:02;;;;;;;1999.90;999.90;;;5.00;99.90;;;;;;5048800;28;20463;-68
2023/01/04 05:40:29;;;;;;;1999.90;999.90;;;5.10;99.90;;;;;;5047903;28;20444;-67
2023/01/04 05:42:56;;;;;;;1999.90;999.90;;;5.00;99.90;;;;;;5048750;28;20440;-68
2023/01/04 05:45:23;;;;;;;1999.90;999.90;;;5.10;99.90;;;;;;5048885;28;20832;-68
2023/01/04 05:47:50;;;;;;;1999.90;999.90;;;5.20;99.90;;;;;;5048455;28;20472;-69
2023/01/04 05:50:19;;;;;;;1999.90;999.90;;;5.40;99.90;;;;;;5047710;28;20480;-69
2023/01/04 05:52:46;;;;;;;1999.90;999.90;;;5.40;99.90;;;;;;5048241;28;20452;-68
2023/01/04 05:55:13;;;;;;;1999.90;999.90;;;5.50;99.90;;;;;;5048280;28;20455;-69
2023/01/04 05:57:40;;;;;;;1999.90;999.90;;;5.60;99.90;;;;;;5048486;28;20844;-68
2023/01/04 06:00:08;;;;;;;1999.90;999.90;;;5.60;99.90;;;;;;5047781;28;20440;-68
2023/01/04 06:02:35;;;;;;;1999.90;999.90;;;5.60;99.90;;;;;;5048159;28;20463;-68
2023/01/04 06:05:02;;;;;;;1999.90;999.90;;;5.60;99.90;;;;;;5048407;28;20938;-69
2023/01/04 06:07:30;;;;;;;1999.90;999.90;;;5.70;99.90;;;;;;5048141;28;20475;-69
2023/01/04 06:09:57;;;;;;;1999.90;999.90;;;5.70;99.90;;;;;;5047208;28;20484;-68
2023/01/04 06:12:24;;;;;;;1999.90;999.90;;;5.80;99.90;;;;;;5047936;28;20447;-68
2023/01/04 06:14:51;;;;;;;1999.90;999.90;;;5.90;99.90;;;;;;5048392;28;20458;-69
2023/01/04 06:17:18;;;;;;;1999.90;999.90;;;6.00;99.90;;;;;;5047979;28;20475;-69
2023/01/04 06:19:44;;;;;;;1999.90;999.90;;;6.00;99.90;;;;;;5047282;28;20447;-69
2023/01/04 06:22:11;;;;;;;1999.90;999.90;;;6.10;99.90;;;;;;5047844;28;20444;-68
2023/01/04 06:24:39;;;;;;;1999.90;999.90;;;6.20;99.90;;;;;;5047863;28;20459;-69
2023/01/04 06:27:06;;;;;;;1999.90;999.90;;;6.20;99.90;;;;;;5048255;28;20475;-69
2023/01/04 06:29:33;;;;;;;1999.90;999.90;;;6.30;99.90;;;;;;5047083;28;20456;-68
2023/01/04 06:31:59;;;;;;;1999.90;999.90;;;6.20;99.90;;;;;;5048000;28;21157;-68
2023/01/04 06:34:26;;;;;;;1999.90;999.90;;;6.30;99.90;;;;;;5047619;28;20455;-69
2023/01/04 06:36:53;;;;;;;1999.90;999.90;;;6.30;99.90;;;;;;5038617;28;20461;-69
2023/01/04 06:39:20;;;;;;;1999.90;999.90;;;6.40;99.90;;;;;;5027302;28;20437;-68
2023/01/04 06:41:48;;;;;;;1999.90;999.90;;;6.40;99.90;;;;;;5027540;28;20433;-69
2023/01/04 06:44:14;;;;;;;1999.90;999.90;;;6.40;99.90;;;;;;5027650;28;20441;-69
2023/01/04 06:46:41;;;;;;;1999.90;999.90;;;6.40;99.90;;;;;;5027891;28;20447;-68
2023/01/04 06:49:08;;;;;;;1999.90;999.90;;;6.40;99.90;;;;;;5026899;28;20453;-69
2023/01/04 06:51:35;;;;;;;1999.90;999.90;;;6.40;99.90;;;;;;5027895;28;20486;-69
2023/01/04 06:54:02;;;;;;;1999.90;999.90;;;6.50;99.90;;;;;;5027510;28;20935;-68
2023/01/04 06:56:29;;;;;;;1999.90;999.90;;;6.50;99.90;;;;;;5027737;28;20826;-69
2023/01/04 06:58:57;;;;;;;1999.90;999.90;;;6.50;99.90;;;;;;5027220;28;20481;-69
2023/01/04 07:01:24;;;;;;;1999.90;999.90;;;6.50;99.90;;;;;;5027558;28;20445;-69
2023/01/04 07:03:51;;;;;;;1999.90;999.90;;;6.60;99.90;;;;;;5027680;28;20451;-68
2023/01/04 07:06:18;;;;;;;1999.90;999.90;;;6.50;99.90;;;;;;5027878;28;20453;-68
2023/01/04 07:08:44;;;;;;;1999.90;999.90;;;6.50;99.90;;;;;;5026930;28;20468;-68
2023/01/04 07:11:11;;;;;;;1999.90;999.90;;;6.50;99.90;;;;;;5027509;28;21029;-69
2023/01/04 07:13:38;;;;;;;1999.90;999.90;;;6.50;99.90;;;;;;5027041;28;20835;-68
2023/01/04 07:16:07;;;;;;;1999.90;999.90;;;6.50;99.90;;;;;;5027760;28;20471;-68
2023/01/04 07:18:33;;;;;;;1999.90;999.90;;;6.50;99.90;;;;;;5027020;28;20464;-68
2023/01/04 07:21:00;;;;;;;1999.90;999.90;;;6.50;99.90;;;;;;5027929;28;20440;-68
2023/01/04 07:23:27;;;;;;;1999.90;999.90;;;6.50;99.90;;;;;;5026849;28;21052;-68
2023/01/04 07:25:54;;;;;;;1999.90;999.90;;;6.50;99.90;;;;;;5027617;28;20448;-68
2023/01/04 07:31:06;;;;;;;1999.90;999.90;;;6.50;99.90;;;;;;5026743;28;20480;-68
2023/01/04 07:33:33;;;;;;;1999.90;999.90;;;6.50;99.90;;;;;;5027107;28;20448;-71
2023/01/04 07:36:03;;;;;;;1999.90;999.90;;;6.50;99.90;;;;;;5037858;28;20448;-68
2023/01/04 07:38:30;;;;;;;1999.90;999.90;;;6.50;99.90;;;;;;5046202;28;20472;-68
2023/01/04 07:40:57;;;;;;;1999.90;999.90;;;6.50;99.90;;;;;;5046798;28;20439;-68
2023/01/04 07:43:24;;;;;;;1999.90;999.90;;;6.60;99.90;;;;;;5046981;28;20904;-67
2023/01/04 07:45:50;;;;;;;1999.90;999.90;;;6.50;99.90;;;;;;5047177;28;20450;-67
2023/01/04 07:48:19;;;;;;;1999.90;999.90;;;6.50;99.90;;;;;;5046245;28;20471;-69
2023/01/04 07:50:45;;;;;;;1999.90;999.90;;;6.40;99.90;;;;;;5046857;28;21067;-68
2023/01/04 07:53:12;;;;;;;1999.90;999.90;;;6.40;99.90;;;;;;5050137;28;20469;-70
2023/01/04 07:55:39;;;;;;;1999.90;999.90;;;6.40;99.90;;;;;;5050880;28;20455;-69
2023/01/04 07:58:06;;;;;;;1999.90;999.90;;;6.40;99.90;;;;;;5050532;28;20471;-70
2023/01/04 08:00:33;;;;;;;1999.90;999.90;;;6.40;99.90;;;;;;5050091;28;20448;-68
2023/01/04 08:02:59;;;;;;;1999.90;999.90;;;6.40;99.90;;;;;;5050004;28;20463;-69
2023/01/04 08:05:28;;;;;;;1999.90;999.90;;;6.40;99.90;;;;;;5050624;28;20456;-69
2023/01/04 08:07:54;;;;;;;1999.90;999.90;;;6.40;99.90;;;;;;5050268;28;20483;-69
2023/01/04 08:10:21;;;;;;;1999.90;999.90;;;6.40;99.90;;;;;;5027455;28;20484;-73
2023/01/04 08:12:48;;;;;;;1999.90;999.90;;;6.40;99.90;;;;;;5030047;28;20461;-67
2023/01/04 08:15:15;;;;;;;1999.90;999.90;;;6.50;99.90;;;;;;5033010;28;20459;-68
2023/01/04 08:17:42;;;;;;;1999.90;999.90;;;6.50;99.90;;;;;;5029424;28;20465;-68
2023/01/04 08:20:13;;;;;;;1999.90;999.90;;;6.40;99.90;;;;;;5028791;28;20445;-65
2023/01/04 08:22:41;;;;;;;1999.90;999.90;;;6.50;99.90;;;;;;5029833;28;20457;-68
2023/01/04 08:25:08;;;;;;;1999.90;999.90;;;6.50;99.90;;;;;;5028711;28;20461;-68
2023/01/04 08:27:35;;;;;;;1999.90;999.90;;;6.50;99.90;;;;;;5026056;28;20465;-68
2023/01/04 08:30:02;;;;;;;1999.90;999.90;;;6.50;99.90;;;;;;5028717;28;20467;-68
2023/01/04 08:32:29;;;;;;;1999.90;999.90;;;6.50;99.90;;;;;;5029444;28;21366;-72
2023/01/04 08:34:55;;;;;;;1999.90;999.90;;;6.50;99.90;;;;;;5030046;28;20457;-68
2023/01/04 08:37:22;;;;;;;1999.90;999.90;;;6.50;99.90;;;;;;5028842;28;20479;-68
2023/01/04 08:39:50;;;;;;;1999.90;999.90;;;6.50;99.90;;;;;;5027869;28;20453;-68
2023/01/04 08:42:17;;;;;;;1999.90;999.90;;;6.60;99.90;;;;;;5029167;28;20452;-68
2023/01/04 08:44:44;;;;;;;1999.90;999.90;;;6.60;99.90;;;;;;5030239;28;21189;-69
2023/01/04 08:47:11;;;;;;;1999.90;999.90;;;6.60;99.90;;;;;;5029408;28;20469;-67
2023/01/04 08:49:38;;;;;;;1999.90;999.90;;;6.70;99.90;;;;;;5027801;28;20448;-67
2023/01/04 08:52:05;;;;;;;1999.90;999.90;;;6.70;99.90;;;;;;5027513;28;21115;-67
2023/01/04 08:54:33;;;;;;;1999.90;999.90;;;6.80;99.90;;;;;;5027001;28;20445;-74
2023/01/04 08:57:01;;;;;;;1999.90;999.90;;;6.80;99.90;;;;;;5016426;28;20483;-68
2023/01/04 08:59:28;;;;;;;1999.90;999.90;;;6.80;99.90;;;;;;5026340;28;20487;-68
2023/01/04 09:01:55;;;;;;;1999.90;999.90;;;6.90;99.90;;;;;;5020680;28;20458;-68
2023/01/04 09:04:22;;;;;;;1999.90;999.90;;;6.90;99.90;;;;;;5024132;28;20467;-69
2023/01/04 09:06:49;;;;;;;1999.90;999.90;;;7.00;99.90;;;;;;5030090;28;20464;-68
2023/01/04 09:09:15;;;;;;;1999.90;999.90;;;7.00;99.90;;;;;;5028891;28;20453;-71
2023/01/04 09:11:42;;;;;;;1999.90;999.90;;;6.90;99.90;;;;;;5026434;28;20490;-69
2023/01/04 09:14:12;;;;;;;1999.90;999.90;;;6.80;99.90;;;;;;5024326;28;20449;-69
2023/01/04 09:16:39;;;;;;;1999.90;999.90;;;7.00;99.90;;;;;;5030781;28;20456;-69
2023/01/04 09:19:07;;;;;;;1999.90;999.90;;;7.00;99.90;;;;;;5030071;28;20536;-69
2023/01/04 09:21:34;;;;;;;1999.90;999.90;;;7.00;99.90;;;;;;5030996;28;21169;-69
2023/01/04 09:24:01;;;;;;;1999.90;999.90;;;7.20;99.90;;;;;;5028992;28;20449;-69
2023/01/04 09:26:28;;;;;;;1999.90;999.90;;;7.40;99.90;;;;;;5035019;28;20461;-71
2023/01/04 09:28:56;;;;;;;1999.90;999.90;;;7.50;99.90;;;;;;5031054;28;20449;-68
2023/01/04 09:31:27;;;;;;;1999.90;999.90;;;7.70;99.90;;;;;;5041489;28;20854;-68
2023/01/04 09:33:55;;;;;;;1999.90;999.90;;;7.70;99.90;;;;;;5029944;28;20437;-70
2023/01/04 09:36:23;;;;;;;1999.90;999.90;;;7.80;99.90;;;;;;5029681;28;20449;-69
2023/01/04 09:38:50;;;;;;;1999.90;999.90;;;7.80;99.90;;;;;;5028474;28;20574;-68
2023/01/04 09:41:24;;;;;;;1999.90;999.90;;;7.80;99.90;;;;;;5029278;28;20448;-69
2023/01/04 09:43:52;;;;;;;1999.90;999.90;;;8.00;99.90;;;;;;5028907;28;20446;-69
2023/01/04 09:46:29;;;;;;;1999.90;999.90;;;8.00;99.90;;;;;;5028559;28;20460;-69
2023/01/04 09:49:01;;;;;;;1999.90;999.90;;;8.00;99.90;;;;;;5027276;28;20519;-69
2023/01/04 09:51:34;;;;;;;1999.90;999.90;;;8.10;99.90;;;;;;5025529;28;20504;-69
2023/01/04 09:54:05;;;;;;;1999.90;999.90;;;8.10;99.90;;;;;;5027588;28;20802;-69
2023/01/04 09:56:35;;;;;;;1999.90;999.90;;;8.10;99.90;;;;;;5028380;28;20444;-68
2023/01/04 09:59:07;;;;;;;1999.90;999.90;;;8.10;99.90;;;;;;5027266;28;20448;-68
2023/01/04 10:01:43;;;;;;;1999.90;999.90;;;8.10;99.90;;;;;;5028399;28;21308;-68
2023/01/04 10:04:17;;;;;;;1999.90;999.90;;;8.20;99.90;;;;;;5025415;28;20449;-68
2023/01/04 10:06:44;;;;;;;1999.90;999.90;;;8.30;99.90;;;;;;5029114;28;20563;-68
2023/01/04 10:09:15;;;;;;;1999.90;999.90;;;8.40;99.90;;;;;;5027367;28;20453;-68
2023/01/04 10:12:04;;;;;;;1999.90;999.90;;;8.40;99.90;;;;;;5032261;28;20491;-67
2023/01/04 10:14:46;;;;;;;1999.90;999.90;;;8.50;99.90;;;;;;5026050;28;20449;-67
2023/01/04 10:17:26;;;;;;;1999.90;999.90;;;8.50;99.90;;;;;;5026064;28;20863;-68
2023/01/04 10:20:11;;;;;;;1999.90;999.90;;;8.60;99.90;;;;;;5022813;28;20445;-67
2023/01/04 10:22:46;;;;;;;1999.90;999.90;;;8.60;99.90;;;;;;5020640;28;20448;-67
2023/01/04 10:25:24;;;;;;;1999.90;999.90;;;8.70;99.90;;;;;;5029246;28;20440;-68
2023/01/04 10:28:04;;;;;;;1999.90;999.90;;;8.70;99.90;;;;;;5026476;28;20467;-68
2023/01/04 10:30:39;;;;;;;1999.90;999.90;;;8.80;99.90;;;;;;5024519;28;20455;-67
2023/01/04 10:33:12;;;;;;;1999.90;999.90;;;8.80;99.90;;;;;;5025543;28;20845;-69
2023/01/04 10:35:42;;;;;;;1999.90;999.90;;;8.80;99.90;;;;;;5024037;28;20456;-67
2023/01/04 10:38:16;;;;;;;1999.90;999.90;;;8.90;99.90;;;;;;5026464;28;20473;-69
2023/01/04 10:40:46;;;;;;;1999.90;999.90;;;9.00;99.90;;;;;;5033107;28;20459;-69
2023/01/04 10:43:21;;;;;;;1999.90;999.90;;;9.20;99.90;;;;;;5028755;28;20444;-70
2023/01/04 10:45:57;;;;;;;1999.90;999.90;;;9.20;99.90;;;;;;5027791;28;20449;-69
2023/01/04 10:48:35;;;;;;;1999.90;999.90;;;9.30;99.90;;;;;;5026167;28;20465;-69
2023/01/04 10:51:03;;;;;;;1999.90;999.90;;;9.40;99.90;;;;;;5024557;28;20466;-69
2023/01/04 10:53:37;;;;;;;1999.90;999.90;;;9.60;99.90;;;;;;5025678;28;20488;-69
2023/01/04 10:56:09;;;;;;;1999.90;999.90;;;9.80;99.90;;;;;;5025482;28;20447;-69
2023/01/04 10:58:43;;;;;;;1999.90;999.90;;;9.80;99.90;;;;;;5033522;28;20468;-70
2023/01/04 11:01:14;;;;;;;1999.90;999.90;;;9.80;99.90;;;;;;5026383;28;20467;-70
2023/01/04 11:03:48;;;;;;;1999.90;999.90;;;9.90;99.90;;;;;;5041468;28;20440;-70
2023/01/04 11:06:19;;;;;;;1999.90;999.90;;;9.90;99.90;;;;;;5027407;28;20444;-70
2023/01/04 11:08:50;;;;;;;1999.90;999.90;;;10.00;99.90;;;;;;5029575;28;20460;-70
2023/01/04 11:11:23;;;;;;;1999.90;999.90;;;10.00;99.90;;;;;;5043329;28;20448;-69
2023/01/04 11:13:50;;;;;;;1999.90;999.90;;;10.00;99.90;;;;;;5044795;28;20451;-70
2023/01/04 11:16:17;;;;;;;1999.90;999.90;;;10.10;99.90;;;;;;5039387;28;20457;-70
2023/01/04 11:18:49;;;;;;;1999.90;999.90;;;10.20;99.90;;;;;;5026416;28;21084;-69
2023/01/04 11:21:19;;;;;;;1999.90;999.90;;;10.20;99.90;;;;;;5025849;28;20441;-69
2023/01/04 11:23:46;;;;;;;1999.90;999.90;;;10.30;99.90;;;;;;5033571;28;20477;-69
2023/01/04 11:26:17;;;;;;;1999.90;999.90;;;10.30;99.90;;;;;;5027534;28;20453;-70
2023/01/04 11:28:49;;;;;;;1999.90;999.90;;;10.30;99.90;;;;;;5024285;28;20465;-69
2023/01/04 11:31:22;;;;;;;1999.90;999.90;;;10.20;99.90;;;;;;5049771;28;20446;-70
2023/01/04 11:33:56;;;;;;;1999.90;999.90;;;10.20;99.90;;;;;;5048087;28;21043;-69
2023/01/04 11:36:35;;;;;;;1999.90;999.90;;;10.30;99.90;;;;;;5032732;28;20445;-70
2023/01/04 11:39:03;;;;;;;1999.90;999.90;;;10.30;99.90;;;;;;5048207;28;20443;-69
2023/01/04 11:41:30;;;;;;;1999.90;999.90;;;10.30;99.90;;;;;;5047838;28;20448;-71
2023/01/04 11:43:58;;;;;;;1999.90;999.90;;;10.30;99.90;;;;;;5029515;28;20451;-69
2023/01/04 11:46:26;;;;;;;1999.90;999.90;;;10.20;99.90;;;;;;5028804;28;20456;-70
2023/01/04 11:48:54;;;;;;;1999.90;999.90;;;10.10;99.90;;;;;;5041436;28;20456;-69
2023/01/04 11:51:38;;;;;;;1999.90;999.90;;;10.10;99.90;;;;;;5030843;28;20441;-68
2023/01/04 11:54:07;;;;;;;1999.90;999.90;;;10.00;99.90;;;;;;5013182;28;20442;-68
2023/01/04 11:56:35;;;;;;;1999.90;999.90;;;10.00;99.90;;;;;;5038440;28;20444;-68
2023/01/04 11:59:05;;;;;;;1999.90;999.90;;;10.00;99.90;;;;;;5047971;28;20958;-69
2023/01/04 12:01:35;;;;;;;1999.90;999.90;;;10.10;99.90;;;;;;5031172;28;20457;-70
2023/01/04 12:04:09;;;;;;;1999.90;999.90;;;10.10;99.90;;;;;;5035341;28;20480;-69
2023/01/04 12:06:40;;;;;;;1999.90;999.90;;;10.00;99.90;;;;;;5040127;28;20439;-69
2023/01/04 12:09:14;;;;;;;1999.90;999.90;;;10.00;99.90;;;;;;5035958;28;20452;-68
2023/01/04 12:11:43;;;;;;;1999.90;999.90;;;10.10;99.90;;;;;;5032383;28;20829;-69
2023/01/04 12:14:21;;;;;;;1999.90;999.90;;;10.10;99.90;;;;;;5030909;28;20469;-69
2023/01/04 12:16:57;;;;;;;1999.90;999.90;;;10.10;99.90;;;;;;5026612;28;20474;-69
2023/01/04 12:19:25;;;;;;;1999.90;999.90;;;10.10;99.90;;;;;;5037392;28;20444;-69
2023/01/04 12:21:55;;;;;;;1999.90;999.90;;;10.10;99.90;;;;;;5029623;28;20499;-69
2023/01/04 12:24:25;;;;;;;1999.90;999.90;;;10.10;99.90;;;;;;5031320;28;20445;-69
2023/01/04 12:26:53;;;;;;;1999.90;999.90;;;10.20;99.90;;;;;;5032349;28;20476;-70
2023/01/04 12:29:53;;;;;;;1999.90;999.90;;;10.30;99.90;;;;;;5031826;28;20452;-69
2023/01/04 12:32:45;;;;;;;1999.90;999.90;;;10.30;99.90;;;;;;5030226;28;20931;-69
2023/01/04 12:35:58;;;;;;;1999.90;999.90;;;10.30;99.90;;;;;;5031102;28;20685;-69
2023/01/04 12:39:02;;;;;;;1999.90;999.90;;;10.40;99.90;;;;;;5029068;28;20526;-69
2023/01/04 12:42:03;;;;;;;1999.90;999.90;;;10.40;99.90;;;;;;5029374;28;20448;-69
2023/01/04 12:45:21;;;;;;;1999.90;999.90;;;10.50;99.90;;;;;;5017012;28;20456;-69
2023/01/04 12:51:20;;;;;;;1999.90;999.90;;;10.60;99.90;;;;;;5028104;28;20433;-69
2023/01/04 12:53:57;;;;;;;1999.90;999.90;;;10.70;99.90;;;;;;5030750;28;20477;-69
2023/01/04 12:57:02;;;;;;;1999.90;999.90;;;10.70;99.90;;;;;;5033349;28;20447;-69
2023/01/04 12:59:35;;;;;;;1999.90;999.90;;;10.80;99.90;;;;;;5032508;28;20930;-69
2023/01/04 13:02:20;;;;;;;1999.90;999.90;;;10.70;99.90;;;;;;5037329;28;20487;-69
2023/01/04 13:04:49;;;;;;;1999.90;999.90;;;10.80;99.90;;;;;;5032081;28;20436;-69
2023/01/04 13:07:20;;;;;;;1999.90;999.90;;;10.80;99.90;;;;;;5042697;28;20500;-69
2023/01/04 13:09:53;;;;;;;1999.90;999.90;;;10.90;99.90;;;;;;5033078;28;20455;-69
2023/01/04 13:13:18;;;;;;;1999.90;999.90;;;10.90;99.90;;;;;;5033591;28;21018;-69
2023/01/04 13:15:59;;;;;;;1999.90;999.90;;;11.00;99.90;;;;;;4991549;28;20529;-69
2023/01/04 13:18:34;;;;;;;1999.90;999.90;;;10.90;99.90;;;;;;4986953;28;20545;-69